createdAt,value
2018-05-21T00:03:52.225Z,101160
2018-05-21T00:08:56.670Z,101153
2018-05-21T00:13:59.763Z,101150
2018-05-21T00:19:03.237Z,101146
2018-05-21T00:24:07.851Z,101140
2018-05-21T00:29:11.710Z,101143
2018-05-21T00:34:16.150Z,101139
2018-05-21T00:39:19.238Z,101138
2018-05-21T00:44:23.702Z,101132
2018-05-21T00:49:28.141Z,101127
2018-05-21T00:54:31.985Z,101125
2018-05-21T00:59:36.414Z,101124
2018-05-21T01:04:40.850Z,101119
2018-05-21T01:09:44.720Z,101116
2018-05-21T01:14:47.807Z,101112
2018-05-21T01:19:50.907Z,101113
2018-05-21T01:24:54.010Z,101109
2018-05-21T01:29:57.871Z,101104
2018-05-21T01:35:02.306Z,101101
2018-05-21T01:40:05.393Z,101102
2018-05-21T01:45:08.882Z,101095
2018-05-21T01:50:12.739Z,101092
2018-05-21T01:55:17.185Z,101092
2018-05-21T02:00:21.785Z,101095
2018-05-21T02:05:24.883Z,101090
2018-05-21T02:10:27.983Z,101086
2018-05-21T02:15:31.843Z,101077
2018-05-21T02:20:35.706Z,101081
2018-05-21T02:25:39.190Z,101079
2018-05-21T02:30:43.800Z,101081
2018-05-21T02:35:46.886Z,101073
2018-05-21T02:40:51.313Z,101072
2018-05-21T02:45:54.807Z,101071
2018-05-21T02:50:58.668Z,101064
2018-05-21T02:56:03.100Z,101053
2018-05-21T03:01:07.527Z,101050
2018-05-21T03:06:12.142Z,101052
2018-05-21T03:11:15.223Z,101051
2018-05-21T03:16:19.442Z,101048
2018-05-21T03:21:23.866Z,101045
2018-05-21T03:26:28.286Z,101042
2018-05-21T03:31:31.753Z,101035
2018-05-21T03:36:36.184Z,101030
2018-05-21T03:41:40.811Z,101028
2018-05-21T03:46:43.842Z,101025
2018-05-21T03:51:48.054Z,101036
2018-05-21T03:56:52.528Z,101033
2018-05-21T04:02:08.754Z,101029
2018-05-21T04:07:13.190Z,101027
2018-05-21T04:12:17.616Z,101025
2018-05-21T04:17:22.204Z,101030
2018-05-21T04:22:26.494Z,101027
2018-05-21T04:27:29.567Z,101025
2018-05-21T04:32:33.428Z,101020
2018-05-21T04:37:37.633Z,101024
2018-05-21T04:42:42.069Z,101026
2018-05-21T04:47:47.443Z,101019
2018-05-21T04:52:50.921Z,101018
2018-05-21T04:57:54.006Z,101009
2018-05-21T05:02:57.103Z,101010
2018-05-21T05:08:01.540Z,101006
2018-05-21T05:13:05.399Z,101007
2018-05-21T05:18:08.482Z,101010
2018-05-21T05:23:12.922Z,101008
2018-05-21T05:28:16.783Z,101002
2018-05-21T05:33:21.382Z,100996
2018-05-21T05:38:24.485Z,100986
2018-05-21T05:43:29.072Z,100988
2018-05-21T05:48:32.545Z,100988
2018-05-21T05:53:36.029Z,100985
2018-05-21T05:58:39.533Z,100984
2018-05-21T06:03:43.749Z,100987
2018-05-21T06:08:48.178Z,100977
2018-05-21T06:13:52.778Z,100979
2018-05-21T06:18:55.854Z,100976
2018-05-21T06:24:00.526Z,100975
2018-05-21T06:29:04.005Z,100971
2018-05-21T06:34:07.272Z,100965
2018-05-21T06:39:11.554Z,100955
2018-05-21T06:44:15.977Z,100959
2018-05-21T06:49:19.463Z,100953
2018-05-21T06:54:23.698Z,100950
2018-05-21T06:59:28.133Z,100949
2018-05-21T07:04:31.208Z,100944
2018-05-21T07:09:35.636Z,100947
2018-05-21T07:14:39.495Z,100944
2018-05-21T07:19:44.082Z,100969
2018-05-21T07:24:47.148Z,100954
2018-05-21T07:29:50.235Z,100944
2018-05-21T07:34:54.820Z,100945
2018-05-21T07:39:58.310Z,100937
2018-05-21T07:45:01.394Z,100933
2018-05-21T07:50:04.473Z,100930
2018-05-21T07:55:07.549Z,100929
2018-05-21T08:00:10.651Z,100926
2018-05-21T08:05:13.752Z,100927
2018-05-21T08:10:16.817Z,100923
2018-05-21T08:15:20.295Z,100918
2018-05-21T08:20:24.519Z,100918
2018-05-21T08:25:28.938Z,100908
2018-05-21T08:30:33.378Z,100908
2018-05-21T08:35:37.822Z,100894
2018-05-21T08:40:41.674Z,100903
2018-05-21T08:45:45.907Z,100901
2018-05-21T08:50:48.993Z,100891
2018-05-21T08:55:52.855Z,100894
2018-05-21T09:00:55.939Z,100883
2018-05-21T09:05:59.023Z,100876
2018-05-21T09:11:02.115Z,100865
2018-05-21T09:16:06.542Z,100867
2018-05-21T09:21:10.976Z,100855
2018-05-21T09:26:15.422Z,100848
2018-05-21T09:31:20.069Z,100839
2018-05-21T09:36:23.103Z,100833
2018-05-21T09:41:26.676Z,100834
2018-05-21T09:46:30.141Z,100832
2018-05-21T09:51:33.227Z,100828
2018-05-21T09:56:37.541Z,100817
2018-05-21T10:01:41.969Z,100816
2018-05-21T10:06:46.550Z,100803
2018-05-21T10:11:50.766Z,100812
2018-05-21T10:16:53.857Z,100815
2018-05-21T10:21:58.075Z,100786
2018-05-21T10:27:01.218Z,100797
2018-05-21T10:32:04.298Z,100790
2018-05-21T10:37:08.848Z,100786
2018-05-21T10:42:13.175Z,100768
2018-05-21T10:47:17.385Z,100767
2018-05-21T10:52:21.614Z,100788
2018-05-21T10:57:24.702Z,100766
2018-05-21T11:02:28.919Z,100754
2018-05-21T11:07:33.047Z,100753
2018-05-21T11:12:36.903Z,100743
2018-05-21T11:17:40.015Z,100735
2018-05-21T11:22:43.871Z,100731
2018-05-21T11:27:47.403Z,100735
2018-05-21T11:32:51.240Z,100726
2018-05-21T11:37:54.322Z,100721
2018-05-21T11:42:57.400Z,100707
2018-05-21T11:48:00.492Z,100707
2018-05-21T11:53:03.574Z,100704
2018-05-21T11:58:07.051Z,100706
2018-05-21T12:03:10.163Z,100692
2018-05-21T12:08:13.253Z,100695
2018-05-21T12:13:16.324Z,100688
2018-05-21T12:18:19.403Z,100695
2018-05-21T12:23:23.254Z,100677
2018-05-21T12:28:26.718Z,100673
2018-05-21T12:33:29.793Z,100700
2018-05-21T12:38:32.869Z,100681
2018-05-21T12:43:35.958Z,100674
2018-05-21T12:48:40.170Z,100668
2018-05-21T12:53:44.395Z,100662
2018-05-21T12:58:48.614Z,100673
2018-05-21T13:03:52.082Z,100674
2018-05-21T13:08:56.299Z,100664
2018-05-21T13:13:59.373Z,100654
2018-05-21T13:19:02.450Z,100647
2018-05-21T13:24:06.905Z,100642
2018-05-21T13:29:11.306Z,100636
2018-05-21T13:34:15.889Z,100629
2018-05-21T13:39:18.962Z,100626
2018-05-21T13:44:23.380Z,100632
2018-05-21T13:49:26.858Z,100624
2018-05-21T13:54:31.271Z,100616
2018-05-21T13:59:35.697Z,100610
2018-05-21T14:04:39.547Z,100606
2018-05-21T14:09:43.971Z,100599
2018-05-21T14:14:48.563Z,100593
2018-05-21T14:19:51.635Z,100592
2018-05-21T14:24:55.851Z,100595
2018-05-21T14:30:00.269Z,100594
2018-05-21T14:35:04.680Z,100588
2018-05-21T14:40:08.894Z,100568
2018-05-21T14:45:11.971Z,100566
2018-05-21T14:50:16.398Z,100571
2018-05-21T14:55:20.251Z,100554
2018-05-21T15:00:23.323Z,100560
2018-05-21T15:05:27.535Z,100550
2018-05-21T15:10:31.968Z,100544
2018-05-21T15:15:36.554Z,100542
2018-05-21T15:20:39.643Z,100540
2018-05-21T15:25:43.851Z,100544
2018-05-21T15:30:46.918Z,100536
2018-05-21T15:35:49.996Z,100540
2018-05-21T15:40:54.861Z,100528
2018-05-21T15:45:59.277Z,100528
2018-05-21T15:51:03.711Z,100520
2018-05-21T15:56:08.285Z,100512
2018-05-21T16:01:12.716Z,100507
2018-05-21T16:06:16.553Z,100503
2018-05-21T16:11:20.964Z,100504
2018-05-21T16:16:24.826Z,100501
2018-05-21T16:21:27.906Z,100497
2018-05-21T16:26:32.329Z,100495
2018-05-21T16:31:36.910Z,100491
2018-05-21T16:36:39.979Z,100492
2018-05-21T16:41:44.401Z,100488
2018-05-21T16:46:48.813Z,100482
2018-05-21T16:51:52.278Z,100485
2018-05-21T16:56:56.710Z,100480
2018-05-21T17:02:01.302Z,100480
2018-05-21T17:07:04.399Z,100484
2018-05-21T17:12:08.601Z,100485
2018-05-21T17:17:13.019Z,100489
2018-05-21T17:22:16.870Z,100482
2018-05-21T17:27:21.296Z,100471
2018-05-21T17:32:25.904Z,100466
2018-05-21T17:37:28.979Z,100465
2018-05-21T17:42:33.194Z,100464
2018-05-21T17:47:37.612Z,100464
2018-05-21T17:52:41.450Z,100468
2018-05-21T17:57:47.014Z,100467
2018-05-21T18:02:50.490Z,100471
2018-05-21T18:07:53.575Z,100476
2018-05-21T18:12:57.998Z,100472
2018-05-21T18:18:01.843Z,100482
2018-05-21T18:23:04.915Z,100484
2018-05-21T18:28:07.999Z,100482
2018-05-21T18:33:11.839Z,100479
2018-05-21T18:38:16.282Z,100479
2018-05-21T18:43:19.756Z,100479
2018-05-21T18:48:22.855Z,100482
2018-05-21T18:53:27.283Z,100485
2018-05-21T18:58:31.176Z,100476
2018-05-21T19:03:34.220Z,100475
2018-05-21T19:08:38.069Z,100478
2018-05-21T19:13:42.305Z,100486
2018-05-21T19:18:45.389Z,100486
2018-05-21T19:23:49.257Z,100488
2018-05-21T19:28:53.784Z,100493
2018-05-21T19:33:57.632Z,100493
2018-05-21T19:39:02.091Z,100500
2018-05-21T19:44:05.161Z,100517
2018-05-21T19:49:10.955Z,100511
2018-05-21T19:54:15.186Z,100507
2018-05-21T19:59:19.616Z,100519
2018-05-21T20:04:24.230Z,100517
2018-05-21T20:09:27.327Z,100514
2018-05-21T20:14:30.424Z,100514
2018-05-21T20:19:33.505Z,100519
2018-05-21T20:24:36.590Z,100525
2018-05-21T20:29:40.816Z,100525
2018-05-21T20:34:45.242Z,100520
2018-05-21T20:39:50.494Z,100515
2018-05-21T20:44:53.974Z,100523
2018-05-21T20:49:57.052Z,100522
2018-05-21T20:55:01.490Z,100519
2018-05-21T21:00:05.338Z,100518
2018-05-21T21:05:08.420Z,100525
2018-05-21T21:10:12.862Z,100526
2018-05-21T21:15:16.719Z,100526
2018-05-21T21:20:20.202Z,100528
2018-05-21T21:25:24.642Z,100525
2018-05-21T21:30:29.082Z,100525
2018-05-21T21:35:32.554Z,100530
2018-05-21T21:40:36.995Z,100529
2018-05-21T21:45:40.485Z,100530
2018-05-21T21:50:44.941Z,100527
2018-05-21T21:55:49.391Z,100517
2018-05-21T22:00:53.605Z,100514
2018-05-21T22:05:58.070Z,100512
2018-05-21T22:11:01.550Z,100518
2018-05-21T22:16:05.399Z,100517
2018-05-21T22:21:09.618Z,100517
2018-05-21T22:26:14.055Z,100511
2018-05-21T22:31:18.494Z,100506
2018-05-21T22:36:22.337Z,100500
2018-05-21T22:41:26.766Z,100495
2018-05-21T22:46:30.875Z,100491
2018-05-21T22:51:34.357Z,100496
2018-05-21T22:56:37.842Z,100488
2018-05-21T23:01:40.926Z,100494
2018-05-21T23:06:44.031Z,100498
2018-05-21T23:11:47.507Z,100501
2018-05-21T23:16:50.986Z,100513
2018-05-21T23:21:55.418Z,100512
2018-05-21T23:26:58.501Z,100510
2018-05-21T23:32:01.617Z,100503
2018-05-21T23:37:05.463Z,100506
2018-05-21T23:42:09.340Z,100505
2018-05-21T23:47:12.433Z,100503
2018-05-21T23:52:16.871Z,100508
2018-05-21T23:57:21.091Z,100514
